Time;durP1;ratioP1;P1;durP2;ratioP2;P2;SDS_P1;SDS_P2;PMS_P1;PMS_P2;Temp;Humidity;BMP_temperature;BMP_pressure;BME280_temperature;BME280_humidity;BME280_pressure;Samples;Min_cycle;Max_cycle;Signal;HPM_P1;HPM_P2
2021/10/27 00:09:37;;;;;;;40.9;46.4;;;;;;;5.6;74.4;99600;;;;
2021/10/27 00:19:36;;;;;;;40.9;46.4;;;;;;;5.3;75.1;99600;;;;
2021/10/27 00:29:36;;;;;;;41.1;48.7;;;;;;;5.2;76.3;99600;;;;
2021/10/27 00:39:37;;;;;;;41.1;48.7;;;;;;;5.2;77.3;99600;;;;
2021/10/27 00:49:36;;;;;;;41.1;48.7;;;;;;;5.5;76.7;99600;;;;
2021/10/27 00:59:36;;;;;;;34;43.7;;;;;;;5.5;76.2;99590;;;;
2021/10/27 01:09:36;;;;;;;34;43.7;;;;;;;5.5;75.9;99600;;;;
2021/10/27 01:19:36;;;;;;;34;43.7;;;;;;;5.3;75.7;99590;;;;
2021/10/27 01:29:36;;;;;;;30.1;34.3;;;;;;;5.2;75.7;99600;;;;
2021/10/27 01:39:36;;;;;;;30.1;34.3;;;;;;;5.1;76.7;99590;;;;
2021/10/27 01:50:36;;;;;;;30.1;34.3;;;;;;;5.1;76.7;99610;;;;
2021/10/27 02:00:36;;;;;;;34.8;42.2;;;;;;;4.9;76.3;99610;;;;
2021/10/27 02:10:36;;;;;;;34.8;42.2;;;;;;;4.7;76.4;99610;;;;
2021/10/27 02:20:36;;;;;;;34.8;42.2;;;;;;;4.7;76.8;99630;;;;
2021/10/27 02:30:36;;;;;;;39.3;46.9;;;;;;;5.1;78.9;99620;;;;
2021/10/27 02:40:36;;;;;;;39.3;46.9;;;;;;;5.4;78.2;99640;;;;
2021/10/27 02:50:36;;;;;;;39.3;46.9;;;;;;;5.3;77.6;99640;;;;
2021/10/27 03:00:36;;;;;;;39.8;46.6;;;;;;;5.2;77;99650;;;;
2021/10/27 03:10:36;;;;;;;39.8;46.6;;;;;;;5;77.3;99640;;;;
2021/10/27 03:20:36;;;;;;;39.8;46.6;;;;;;;5.1;78.1;99640;;;;
2021/10/27 03:30:36;;;;;;;31.8;38.5;;;;;;;4.9;77.6;99660;;;;
2021/10/27 03:40:37;;;;;;;31.8;38.5;;;;;;;4.7;77.1;99670;;;;
2021/10/27 03:50:36;;;;;;;31.8;38.5;;;;;;;4.8;78.5;99670;;;;
2021/10/27 04:00:37;;;;;;;25.5;31.5;;;;;;;4.9;78;99670;;;;
2021/10/27 04:10:37;;;;;;;25.5;31.5;;;;;;;4.9;77.8;99670;;;;
2021/10/27 04:20:36;;;;;;;25.5;31.5;;;;;;;5.1;77.9;99680;;;;
2021/10/27 04:30:36;;;;;;;25.1;28.5;;;;;;;5;77.7;99680;;;;
2021/10/27 04:40:36;;;;;;;25.1;28.5;;;;;;;5.2;77.8;99680;;;;
2021/10/27 04:50:36;;;;;;;25.1;28.5;;;;;;;5.3;79.2;99680;;;;
2021/10/27 05:00:36;;;;;;;29.2;36;;;;;;;5.8;78.3;99700;;;;
2021/10/27 05:10:36;;;;;;;29.2;36;;;;;;;5.9;77.9;99710;;;;
2021/10/27 05:20:36;;;;;;;29.2;36;;;;;;;6.1;77.5;99720;;;;
2021/10/27 05:30:36;;;;;;;24.5;32.4;;;;;;;6;77.3;99720;;;;
2021/10/27 05:41:37;;;;;;;24.5;32.4;;;;;;;6.3;76.5;99740;;;;
2021/10/27 05:51:42;;;;;;;24.5;32.4;;;;;;;6.1;76.1;99750;;;;
2021/10/27 06:01:36;;;;;;;37.2;43.8;;;;;;;6.2;76;99760;;;;
2021/10/27 06:11:37;;;;;;;37.2;43.8;;;;;;;6.5;76.3;99750;;;;
2021/10/27 06:22:36;;;;;;;37.2;43.8;;;;;;;6.8;76;99750;;;;
2021/10/27 06:32:41;;;;;;;28.3;33.4;;;;;;;7;75.4;99760;;;;
2021/10/27 06:52:36;;;;;;;28.3;33.4;;;;;;;7.2;73.6;99760;;;;
2021/10/27 07:03:47;;;;;;;33.8;42.9;;;;;;;7.2;73.1;99770;;;;
2021/10/27 07:23:39;;;;;;;33.8;42.9;;;;;;;7.5;72.5;99770;;;;
2021/10/27 07:33:36;;;;;;;44.9;50.9;;;;;;;8;72.5;99770;;;;
2021/10/27 07:43:36;;;;;;;44.9;50.9;;;;;;;8.6;72.5;99770;;;;
2021/10/27 07:54:37;;;;;;;44.9;50.9;;;;;;;9;69.3;99780;;;;
2021/10/27 08:04:37;;;;;;;19.6;22.5;;;;;;;9.4;68.8;99780;;;;
2021/10/27 08:14:37;;;;;;;19.6;22.5;;;;;;;9.8;68.3;99770;;;;
2021/10/27 08:24:37;;;;;;;19.6;22.5;;;;;;;10.2;67;99780;;;;
2021/10/27 08:35:40;;;;;;;23.5;30.4;;;;;;;10.6;66.2;99790;;;;
2021/10/27 08:45:36;;;;;;;23.5;30.4;;;;;;;11;66;99780;;;;
2021/10/27 08:55:37;;;;;;;23.5;30.4;;;;;;;11.4;65.5;99780;;;;
2021/10/27 09:05:44;;;;;;;21.2;25.6;;;;;;;11.9;64.6;99770;;;;
2021/10/27 09:15:56;;;;;;;21.2;25.6;;;;;;;12.4;63.5;99770;;;;
2021/10/27 09:36:43;;;;;;;23.5;31;;;;;;;13.1;61.9;99770;;;;
2021/10/27 09:46:58;;;;;;;23.5;31;;;;;;;13.4;61.8;99770;;;;
2021/10/27 09:56:52;;;;;;;23.5;29.8;;;;;;;13.8;60;99770;;;;
2021/10/27 10:06:37;;;;;;;23.5;29.8;;;;;;;14.3;59.3;99750;;;;
2021/10/27 10:17:36;;;;;;;23.5;29.8;;;;;;;14.6;58.5;99750;;;;
2021/10/27 10:27:37;;;;;;;15.3;18.5;;;;;;;14.9;57.7;99750;;;;
2021/10/27 10:37:39;;;;;;;15.3;18.5;;;;;;;15.3;56;99750;;;;
2021/10/27 10:58:53;;;;;;;11.5;15.6;;;;;;;16;54.5;99730;;;;
2021/10/27 11:38:49;;;;;;;8.4;11;;;;;;;16.6;53;99680;;;;
2021/10/27 11:48:54;;;;;;;8.4;11;;;;;;;16.7;51.7;99680;;;;
2021/10/27 11:58:37;;;;;;;8.8;11.9;;;;;;;16.9;52.1;99670;;;;
2021/10/27 12:08:48;;;;;;;8.8;11.9;;;;;;;16.8;52.1;99670;;;;
2021/10/27 12:18:36;;;;;;;8.8;11.9;;;;;;;16.7;52;99660;;;;
2021/10/27 12:28:37;;;;;;;10.3;13.2;;;;;;;16.6;52;99670;;;;
2021/10/27 12:38:37;;;;;;;10.3;13.2;;;;;;;16.6;52.7;99660;;;;
2021/10/27 12:48:37;;;;;;;10.3;13.2;;;;;;;16.4;52.5;99650;;;;
2021/10/27 12:58:39;;;;;;;11.9;15.1;;;;;;;16.4;52.6;99650;;;;
2021/10/27 13:08:55;;;;;;;11.9;15.1;;;;;;;16.6;52.7;99660;;;;
2021/10/27 13:18:49;;;;;;;11.9;15.1;;;;;;;16.6;52.6;99660;;;;
2021/10/27 13:29:47;;;;;;;10.5;13.1;;;;;;;16.5;52.1;99660;;;;
2021/10/27 13:38:37;;;;;;;10.5;13.1;;;;;;;16;53.4;99660;;;;
2021/10/27 13:48:53;;;;;;;10.5;13.1;;;;;;;15.6;54.5;99670;;;;
2021/10/27 13:58:54;;;;;;;12.4;17;;;;;;;15.6;54.6;99670;;;;
2021/10/27 14:08:48;;;;;;;12.4;17;;;;;;;15.5;55.3;99670;;;;
2021/10/27 14:18:50;;;;;;;12.4;17;;;;;;;15.4;55.7;99670;;;;
2021/10/27 14:39:11;;;;;;;14.3;21.7;;;;;;;15;55.1;99660;;;;
2021/10/27 15:28:45;;;;;;;9.9;15.7;;;;;;;12.4;60.1;99660;;;;
2021/10/27 15:50:32;;;;;;;9.9;15.7;;;;;;;11.5;62.2;99660;;;;
2021/10/27 15:59:37;;;;;;;10.2;15.9;;;;;;;11;63.5;99670;;;;
2021/10/27 16:09:39;;;;;;;10.2;15.9;;;;;;;10.6;64.7;99670;;;;
2021/10/27 16:19:37;;;;;;;10.2;15.9;;;;;;;10.4;66.4;99680;;;;
2021/10/27 16:29:37;;;;;;;13.4;18;;;;;;;10.2;66;99690;;;;
2021/10/27 16:39:37;;;;;;;13.4;18;;;;;;;9.9;66.9;99690;;;;
2021/10/27 16:49:37;;;;;;;13.4;18;;;;;;;9.6;67.9;99700;;;;
2021/10/27 16:59:37;;;;;;;17.1;22.1;;;;;;;9.5;68.5;99700;;;;
2021/10/27 17:09:37;;;;;;;17.1;22.1;;;;;;;9.2;69;99710;;;;
2021/10/27 17:19:37;;;;;;;17.1;22.1;;;;;;;9.2;69.7;99710;;;;
2021/10/27 17:29:37;;;;;;;17.5;22.4;;;;;;;9.1;69.6;99720;;;;
2021/10/27 17:39:38;;;;;;;17.5;22.4;;;;;;;9.1;70.7;99710;;;;
2021/10/27 17:49:46;;;;;;;17.5;22.4;;;;;;;9.2;71;99720;;;;
2021/10/27 17:59:37;;;;;;;19.1;28.3;;;;;;;9.2;71.8;99720;;;;
2021/10/27 18:09:37;;;;;;;19.1;28.3;;;;;;;9.4;72.1;99710;;;;
2021/10/27 18:20:41;;;;;;;19.1;28.3;;;;;;;9.5;71.8;99700;;;;
2021/10/27 18:40:42;;;;;;;22;26;;;;;;;9.5;72.2;99710;;;;
2021/10/27 18:51:37;;;;;;;22;26;;;;;;;9.5;72.5;99710;;;;
2021/10/27 19:01:46;;;;;;;28.9;33.7;;;;;;;9.4;72.3;99730;;;;
2021/10/27 19:11:43;;;;;;;28.9;33.7;;;;;;;9.2;73;99730;;;;
2021/10/27 19:21:37;;;;;;;28.9;33.7;;;;;;;9;72.6;99730;;;;
2021/10/27 19:31:51;;;;;;;26.5;33.8;;;;;;;8.6;72.2;99740;;;;
2021/10/27 20:12:06;;;;;;;32.9;40;;;;;;;7.5;74.6;99750;;;;
2021/10/27 20:51:51;;;;;;;41.2;47.3;;;;;;;6.5;78;99760;;;;
2021/10/27 21:01:41;;;;;;;53.3;64.2;;;;;;;6.3;77.7;99750;;;;
2021/10/27 21:12:43;;;;;;;53.3;64.2;;;;;;;6.3;78.4;99760;;;;
2021/10/27 21:21:37;;;;;;;53.3;64.2;;;;;;;6.1;77.8;99770;;;;
2021/10/27 21:31:47;;;;;;;35.6;39.9;;;;;;;5.9;77.4;99770;;;;
2021/10/27 21:42:41;;;;;;;35.6;39.9;;;;;;;5.6;77.6;99760;;;;
2021/10/27 21:51:37;;;;;;;35.6;39.9;;;;;;;5.5;78.3;99760;;;;
2021/10/27 22:02:37;;;;;;;42.2;49.7;;;;;;;5.4;79;99770;;;;
2021/10/27 22:12:37;;;;;;;42.2;49.7;;;;;;;5.4;78.9;99740;;;;
2021/10/27 22:22:37;;;;;;;42.2;49.7;;;;;;;5.5;79.6;99750;;;;
2021/10/27 22:32:37;;;;;;;27;31.1;;;;;;;5.4;78.9;99750;;;;
2021/10/27 22:42:37;;;;;;;27;31.1;;;;;;;5.3;78.8;99750;;;;
2021/10/27 22:52:37;;;;;;;27;31.1;;;;;;;5.1;78.5;99740;;;;
2021/10/27 23:02:43;;;;;;;24.6;30.9;;;;;;;4.9;78.6;99720;;;;
2021/10/27 23:12:52;;;;;;;24.6;30.9;;;;;;;5;79.7;99730;;;;
2021/10/27 23:42:40;;;;;;;20.2;23.9;;;;;;;4.6;78.8;99710;;;;
2021/10/27 23:52:42;;;;;;;20.2;23.9;;;;;;;4.4;78.5;99710;;;;
